sensor_id;sensor_type;location;lat;lon;timestamp;pressure;altitude;pressure_sealevel;temperature;humidity
23321;BME280;33376;51.306;4.752;2023-03-16T00:01:39;102060.63;;;6.75;100.00
23321;BME280;33376;51.306;4.752;2023-03-16T00:04:04;102051.09;;;6.70;100.00
23321;BME280;33376;51.306;4.752;2023-03-16T00:06:30;102058.38;;;6.54;100.00
23321;BME280;33376;51.306;4.752;2023-03-16T00:08:55;102057.53;;;6.54;100.00
23321;BME280;33376;51.306;4.752;2023-03-16T00:11:26;102061.97;;;6.52;100.00
23321;BME280;33376;51.306;4.752;2023-03-16T00:13:51;102057.81;;;6.39;100.00
23321;BME280;33376;51.306;4.752;2023-03-16T00:16:16;102055.75;;;6.56;100.00
23321;BME280;33376;51.306;4.752;2023-03-16T00:18:42;102062.97;;;6.43;100.00
23321;BME280;33376;51.306;4.752;2023-03-16T00:21:08;102058.38;;;6.54;100.00
23321;BME280;33376;51.306;4.752;2023-03-16T00:23:33;102047.72;;;6.62;100.00
23321;BME280;33376;51.306;4.752;2023-03-16T00:26:00;102045.22;;;6.54;100.00
23321;BME280;33376;51.306;4.752;2023-03-16T00:28:27;102040.66;;;6.62;100.00
23321;BME280;33376;51.306;4.752;2023-03-16T00:30:54;102048.66;;;6.58;100.00
23321;BME280;33376;51.306;4.752;2023-03-16T00:33:23;102043.47;;;6.53;100.00
23321;BME280;33376;51.306;4.752;2023-03-16T00:35:48;102038.63;;;6.78;100.00
23321;BME280;33376;51.306;4.752;2023-03-16T00:38:14;102026.06;;;6.90;100.00
23321;BME280;33376;51.306;4.752;2023-03-16T00:40:39;102022.88;;;6.75;100.00
23321;BME280;33376;51.306;4.752;2023-03-16T00:43:04;102018.53;;;6.71;100.00
23321;BME280;33376;51.306;4.752;2023-03-16T00:45:30;102014.06;;;6.76;100.00
23321;BME280;33376;51.306;4.752;2023-03-16T00:47:56;102025.66;;;6.66;100.00
23321;BME280;33376;51.306;4.752;2023-03-16T00:50:21;102021.34;;;6.63;100.00
23321;BME280;33376;51.306;4.752;2023-03-16T00:52:47;102021.97;;;6.76;100.00
23321;BME280;33376;51.306;4.752;2023-03-16T00:55:12;102023.13;;;6.61;100.00
23321;BME280;33376;51.306;4.752;2023-03-16T00:57:38;102005.34;;;6.72;100.00
23321;BME280;33376;51.306;4.752;2023-03-16T01:00:03;102020.59;;;6.57;100.00
23321;BME280;33376;51.306;4.752;2023-03-16T01:02:36;102013.41;;;6.65;100.00
23321;BME280;33376;51.306;4.752;2023-03-16T01:05:02;102008.22;;;6.60;100.00
23321;BME280;33376;51.306;4.752;2023-03-16T01:07:29;102008.69;;;6.80;100.00
23321;BME280;33376;51.306;4.752;2023-03-16T01:09:56;102014.25;;;6.67;100.00
23321;BME280;33376;51.306;4.752;2023-03-16T01:12:22;102016.91;;;6.65;100.00
23321;BME280;33376;51.306;4.752;2023-03-16T01:14:47;102023.81;;;6.71;100.00
23321;BME280;33376;51.306;4.752;2023-03-16T01:17:12;102028.19;;;6.73;100.00
23321;BME280;33376;51.306;4.752;2023-03-16T01:19:38;102029.94;;;6.73;100.00
23321;BME280;33376;51.306;4.752;2023-03-16T01:22:05;102026.75;;;6.57;100.00
23321;BME280;33376;51.306;4.752;2023-03-16T01:24:31;102038.53;;;6.37;100.00
23321;BME280;33376;51.306;4.752;2023-03-16T01:26:56;102047.44;;;6.30;100.00
23321;BME280;33376;51.306;4.752;2023-03-16T01:29:22;102046.66;;;6.25;100.00
23321;BME280;33376;51.306;4.752;2023-03-16T01:31:47;102048.38;;;6.26;100.00
23321;BME280;33376;51.306;4.752;2023-03-16T01:34:14;102043.03;;;6.32;100.00
23321;BME280;33376;51.306;4.752;2023-03-16T01:36:42;102047.31;;;6.37;100.00
23321;BME280;33376;51.306;4.752;2023-03-16T01:39:10;102059.78;;;6.28;100.00
23321;BME280;33376;51.306;4.752;2023-03-16T01:41:36;102055.56;;;6.16;100.00
23321;BME280;33376;51.306;4.752;2023-03-16T01:44:01;102051.06;;;6.23;100.00
23321;BME280;33376;51.306;4.752;2023-03-16T01:46:27;102054.59;;;6.23;100.00
23321;BME280;33376;51.306;4.752;2023-03-16T01:54:03;102055.75;;;6.07;100.00
23321;BME280;33376;51.306;4.752;2023-03-16T01:56:33;102050.13;;;6.27;100.00
23321;BME280;33376;51.306;4.752;2023-03-16T01:59:00;102046.78;;;6.19;100.00
23321;BME280;33376;51.306;4.752;2023-03-16T02:01:26;102047.44;;;6.30;100.00
23321;BME280;33376;51.306;4.752;2023-03-16T02:03:54;102045.66;;;6.32;100.00
23321;BME280;33376;51.306;4.752;2023-03-16T02:06:21;102038.81;;;6.22;100.00
23321;BME280;33376;51.306;4.752;2023-03-16T02:08:47;102039.53;;;6.31;100.00
23321;BME280;33376;51.306;4.752;2023-03-16T02:11:13;102036.75;;;6.37;100.00
23321;BME280;33376;51.306;4.752;2023-03-16T02:13:43;102037.75;;;6.32;100.00
23321;BME280;33376;51.306;4.752;2023-03-16T02:16:08;102039.59;;;6.27;100.00
23321;BME280;33376;51.306;4.752;2023-03-16T02:18:33;102033.53;;;6.22;100.00
23321;BME280;33376;51.306;4.752;2023-03-16T02:21:04;102038.56;;;6.35;100.00
23321;BME280;33376;51.306;4.752;2023-03-16T02:23:31;102036.81;;;6.34;100.00
23321;BME280;33376;51.306;4.752;2023-03-16T02:26:06;102029.94;;;6.26;100.00
23321;BME280;33376;51.306;4.752;2023-03-16T02:28:40;102024.69;;;6.26;100.00
23321;BME280;33376;51.306;4.752;2023-03-16T02:31:12;102022.03;;;6.26;100.00
23321;BME280;33376;51.306;4.752;2023-03-16T02:33:37;102014.09;;;6.29;100.00
23321;BME280;33376;51.306;4.752;2023-03-16T02:36:04;102014.09;;;6.30;100.00
23321;BME280;33376;51.306;4.752;2023-03-16T02:38:29;102008.81;;;6.30;100.00
23321;BME280;33376;51.306;4.752;2023-03-16T02:41:00;102014.16;;;6.26;100.00
23321;BME280;33376;51.306;4.752;2023-03-16T02:43:32;102007.25;;;6.20;100.00
23321;BME280;33376;51.306;4.752;2023-03-16T02:45:58;102011.53;;;6.24;100.00
23321;BME280;33376;51.306;4.752;2023-03-16T02:48:29;102009.47;;;6.41;100.00
23321;BME280;33376;51.306;4.752;2023-03-16T02:50:56;102004.22;;;6.41;100.00
23321;BME280;33376;51.306;4.752;2023-03-16T02:53:21;101998.81;;;6.47;100.00
23321;BME280;33376;51.306;4.752;2023-03-16T02:55:47;102000.78;;;6.38;100.00
23321;BME280;33376;51.306;4.752;2023-03-16T02:58:12;101991.97;;;6.37;100.00
23321;BME280;33376;51.306;4.752;2023-03-16T03:00:37;101990.84;;;6.50;100.00
23321;BME280;33376;51.306;4.752;2023-03-16T03:03:03;101988.34;;;6.44;100.00
23321;BME280;33376;51.306;4.752;2023-03-16T03:05:29;101986.50;;;6.49;100.00
23321;BME280;33376;51.306;4.752;2023-03-16T03:07:54;101972.38;;;6.52;100.00
23321;BME280;33376;51.306;4.752;2023-03-16T03:10:20;101973.06;;;6.61;100.00
23321;BME280;33376;51.306;4.752;2023-03-16T03:12:46;101971.31;;;6.62;100.00
23321;BME280;33376;51.306;4.752;2023-03-16T03:15:13;101967.03;;;6.55;100.00
23321;BME280;33376;51.306;4.752;2023-03-16T03:17:39;101961.75;;;6.56;100.00
23321;BME280;33376;51.306;4.752;2023-03-16T03:20:04;101960.97;;;6.51;100.00
23321;BME280;33376;51.306;4.752;2023-03-16T03:22:37;101955.59;;;6.57;100.00
23321;BME280;33376;51.306;4.752;2023-03-16T03:25:03;101956.25;;;6.68;100.00
23321;BME280;33376;51.306;4.752;2023-03-16T03:27:28;101953.09;;;6.92;100.00
23321;BME280;33376;51.306;4.752;2023-03-16T03:29:53;101952.63;;;6.72;100.00
23321;BME280;33376;51.306;4.752;2023-03-16T03:32:18;101951.06;;;6.62;100.00
23321;BME280;33376;51.306;4.752;2023-03-16T03:34:44;101947.19;;;6.80;100.00
23321;BME280;33376;51.306;4.752;2023-03-16T03:37:09;101960.97;;;6.51;100.00
23321;BME280;33376;51.306;4.752;2023-03-16T03:39:34;101954.91;;;6.48;100.00
23321;BME280;33376;51.306;4.752;2023-03-16T03:41:59;101948.81;;;6.46;100.00
23321;BME280;33376;51.306;4.752;2023-03-16T03:44:27;101961.97;;;6.46;100.00
23321;BME280;33376;51.306;4.752;2023-03-16T03:46:52;101965.03;;;6.25;100.00
23321;BME280;33376;51.306;4.752;2023-03-16T03:49:17;101958.09;;;6.19;100.00
23321;BME280;33376;51.306;4.752;2023-03-16T03:51:42;101961.66;;;6.17;100.00
23321;BME280;33376;51.306;4.752;2023-03-16T03:54:08;101956.41;;;6.17;100.00
23321;BME280;33376;51.306;4.752;2023-03-16T03:56:33;101965.19;;;6.16;100.00
23321;BME280;33376;51.306;4.752;2023-03-16T03:58:59;101967.03;;;6.12;100.00
23321;BME280;33376;51.306;4.752;2023-03-16T04:01:24;101963.31;;;6.22;100.00
23321;BME280;33376;51.306;4.752;2023-03-16T04:03:49;101954.59;;;6.19;100.00
23321;BME280;33376;51.306;4.752;2023-03-16T04:06:14;101951.38;;;6.05;100.00
23321;BME280;33376;51.306;4.752;2023-03-16T04:08:40;101951.19;;;6.14;100.00
23321;BME280;33376;51.306;4.752;2023-03-16T04:11:05;101941.72;;;6.04;100.00
23321;BME280;33376;51.306;4.752;2023-03-16T04:13:30;101930.41;;;5.98;100.00
23321;BME280;33376;51.306;4.752;2023-03-16T04:15:59;101935.69;;;5.97;100.00
23321;BME280;33376;51.306;4.752;2023-03-16T04:18:26;101918.69;;;6.15;100.00
23321;BME280;33376;51.306;4.752;2023-03-16T04:20:52;101911.38;;;5.84;100.00
23321;BME280;33376;51.306;4.752;2023-03-16T04:23:18;101891.34;;;5.76;100.00
23321;BME280;33376;51.306;4.752;2023-03-16T04:25:43;101891.31;;;5.77;100.00
23321;BME280;33376;51.306;4.752;2023-03-16T04:28:09;101873.81;;;5.73;100.00
23321;BME280;33376;51.306;4.752;2023-03-16T04:30:34;101860.59;;;5.76;100.00
23321;BME280;33376;51.306;4.752;2023-03-16T04:33:00;101861.44;;;5.80;100.00
23321;BME280;33376;51.306;4.752;2023-03-16T04:35:25;101844.63;;;5.88;100.00
23321;BME280;33376;51.306;4.752;2023-03-16T04:37:52;101825.41;;;5.85;100.00
23321;BME280;33376;51.306;4.752;2023-03-16T04:40:17;101821.03;;;5.81;100.00
23321;BME280;33376;51.306;4.752;2023-03-16T04:42:43;101795.50;;;5.87;100.00
23321;BME280;33376;51.306;4.752;2023-03-16T04:45:09;101785.88;;;5.86;100.00
23321;BME280;33376;51.306;4.752;2023-03-16T04:47:35;101776.47;;;5.73;100.00
23321;BME280;33376;51.306;4.752;2023-03-16T04:50:01;101769.38;;;5.77;100.00
23321;BME280;33376;51.306;4.752;2023-03-16T04:52:27;101762.31;;;5.80;100.00
23321;BME280;33376;51.306;4.752;2023-03-16T04:54:53;101754.22;;;5.91;100.00
23321;BME280;33376;51.306;4.752;2023-03-16T04:57:20;101760.41;;;5.88;100.00
23321;BME280;33376;51.306;4.752;2023-03-16T04:59:47;101748.00;;;5.95;100.00
23321;BME280;33376;51.306;4.752;2023-03-16T05:02:14;101749.19;;;6.20;100.00
23321;BME280;33376;51.306;4.752;2023-03-16T05:04:40;101737.34;;;6.01;100.00
23321;BME280;33376;51.306;4.752;2023-03-16T05:07:06;101737.03;;;6.13;100.00
23321;BME280;33376;51.306;4.752;2023-03-16T05:09:31;101734.59;;;6.06;100.00
23321;BME280;33376;51.306;4.752;2023-03-16T05:11:57;101738.59;;;6.23;100.00
23321;BME280;33376;51.306;4.752;2023-03-16T05:14:22;101730.66;;;6.25;100.00
23321;BME280;33376;51.306;4.752;2023-03-16T05:16:47;101732.63;;;6.15;100.00
23321;BME280;33376;51.306;4.752;2023-03-16T05:19:12;101729.13;;;6.15;100.00
23321;BME280;33376;51.306;4.752;2023-03-16T05:21:38;101728.63;;;5.97;100.00
23321;BME280;33376;51.306;4.752;2023-03-16T05:24:04;101718.88;;;6.03;100.00
23321;BME280;33376;51.306;4.752;2023-03-16T05:26:29;101727.22;;;5.80;100.00
23321;BME280;33376;51.306;4.752;2023-03-16T05:28:54;101715.81;;;5.79;100.00
23321;BME280;33376;51.306;4.752;2023-03-16T05:31:19;101705.59;;;5.66;100.00
23321;BME280;33376;51.306;4.752;2023-03-16T05:33:44;101709.91;;;5.68;100.00
23321;BME280;33376;51.306;4.752;2023-03-16T05:36:10;101708.13;;;5.70;100.00
23321;BME280;33376;51.306;4.752;2023-03-16T05:38:35;101699.28;;;5.73;100.00
23321;BME280;33376;51.306;4.752;2023-03-16T05:41:01;101692.47;;;5.64;100.00
23321;BME280;33376;51.306;4.752;2023-03-16T05:43:28;101695.91;;;5.66;100.00
23321;BME280;33376;51.306;4.752;2023-03-16T05:45:54;101687.94;;;5.72;100.00
23321;BME280;33376;51.306;4.752;2023-03-16T05:48:19;101680.22;;;5.63;100.00
23321;BME280;33376;51.306;4.752;2023-03-16T05:50:45;101684.59;;;5.64;100.00
23321;BME280;33376;51.306;4.752;2023-03-16T05:53:10;101672.31;;;5.63;100.00
23321;BME280;33376;51.306;4.752;2023-03-16T05:55:35;101669.66;;;5.65;100.00
23321;BME280;33376;51.306;4.752;2023-03-16T05:58:01;101663.50;;;5.66;100.00
23321;BME280;33376;51.306;4.752;2023-03-16T06:00:26;101665.81;;;5.79;100.00
23321;BME280;33376;51.306;4.752;2023-03-16T06:02:52;101674.63;;;5.78;100.00
23321;BME280;33376;51.306;4.752;2023-03-16T06:05:18;101668.41;;;5.81;100.00
23321;BME280;33376;51.306;4.752;2023-03-16T06:07:43;101661.28;;;5.87;100.00
23321;BME280;33376;51.306;4.752;2023-03-16T06:10:09;101666.44;;;5.92;100.00
23321;BME280;33376;51.306;4.752;2023-03-16T06:12:35;101669.84;;;5.97;100.00
23321;BME280;33376;51.306;4.752;2023-03-16T06:15:00;101668.94;;;6.00;100.00
23321;BME280;33376;51.306;4.752;2023-03-16T06:17:26;101672.25;;;6.08;100.00
23321;BME280;33376;51.306;4.752;2023-03-16T06:19:51;101663.47;;;6.07;100.00
23321;BME280;33376;51.306;4.752;2023-03-16T06:22:16;101668.72;;;6.09;100.00
23321;BME280;33376;51.306;4.752;2023-03-16T06:24:42;101671.22;;;6.13;100.00
23321;BME280;33376;51.306;4.752;2023-03-16T06:27:08;101669.41;;;6.17;100.00
23321;BME280;33376;51.306;4.752;2023-03-16T06:29:33;101671.13;;;6.18;100.00
23321;BME280;33376;51.306;4.752;2023-03-16T06:31:59;101675.34;;;6.25;100.00
23321;BME280;33376;51.306;4.752;2023-03-16T06:34:24;101677.97;;;6.25;100.00
23321;BME280;33376;51.306;4.752;2023-03-16T06:36:49;101679.59;;;6.32;100.00
23321;BME280;33376;51.306;4.752;2023-03-16T06:39:15;101681.31;;;6.33;100.00
23321;BME280;33376;51.306;4.752;2023-03-16T06:41:40;101687.53;;;6.30;100.00
23321;BME280;33376;51.306;4.752;2023-03-16T06:44:07;101699.59;;;6.39;100.00
23321;BME280;33376;51.306;4.752;2023-03-16T06:46:32;101694.19;;;6.43;100.00
23321;BME280;33376;51.306;4.752;2023-03-16T06:48:57;101706.47;;;6.44;100.00
23321;BME280;33376;51.306;4.752;2023-03-16T06:51:24;101702.69;;;6.54;100.00
23321;BME280;33376;51.306;4.752;2023-03-16T06:53:50;101706.91;;;6.63;100.00
23321;BME280;33376;51.306;4.752;2023-03-16T06:56:15;101709.53;;;6.63;100.00
23321;BME280;33376;51.306;4.752;2023-03-16T06:58:40;101710.97;;;6.76;100.00
23321;BME280;33376;51.306;4.752;2023-03-16T07:01:05;101707.38;;;6.78;100.00
23321;BME280;33376;51.306;4.752;2023-03-16T07:03:31;101698.38;;;6.87;100.00
23321;BME280;33376;51.306;4.752;2023-03-16T07:05:56;101697.22;;;6.97;100.00
23321;BME280;33376;51.306;4.752;2023-03-16T07:08:22;101696.16;;;7.04;100.00
23321;BME280;33376;51.306;4.752;2023-03-16T07:10:49;101696.06;;;7.07;100.00
23321;BME280;33376;51.306;4.752;2023-03-16T07:13:14;101694.91;;;7.17;100.00
23321;BME280;33376;51.306;4.752;2023-03-16T07:15:40;101695.63;;;7.23;100.00
23321;BME280;33376;51.306;4.752;2023-03-16T07:18:05;101695.63;;;7.23;100.00
23321;BME280;33376;51.306;4.752;2023-03-16T07:20:30;101706.00;;;7.29;100.00
23321;BME280;33376;51.306;4.752;2023-03-16T07:22:57;101706.75;;;7.34;100.00
23321;BME280;33376;51.306;4.752;2023-03-16T07:25:22;101705.03;;;7.33;100.00
23321;BME280;33376;51.306;4.752;2023-03-16T07:27:47;101716.19;;;7.43;100.00
23321;BME280;33376;51.306;4.752;2023-03-16T07:30:12;101716.41;;;7.35;100.00
23321;BME280;33376;51.306;4.752;2023-03-16T07:32:38;101716.31;;;7.38;100.00
23321;BME280;33376;51.306;4.752;2023-03-16T07:35:04;101717.81;;;7.47;100.00
23321;BME280;33376;51.306;4.752;2023-03-16T07:37:29;101713.88;;;7.62;100.00
23321;BME280;33376;51.306;4.752;2023-03-16T07:39:54;101704.84;;;7.70;100.00
23321;BME280;33376;51.306;4.752;2023-03-16T07:42:20;101702.97;;;7.74;100.00
23321;BME280;33376;51.306;4.752;2023-03-16T07:44:46;101707.19;;;7.79;100.00
23321;BME280;33376;51.306;4.752;2023-03-16T07:47:12;101701.19;;;7.74;100.00
23321;BME280;33376;51.306;4.752;2023-03-16T07:49:37;101699.56;;;7.70;100.00
23321;BME280;33376;51.306;4.752;2023-03-16T07:52:03;101685.00;;;7.86;100.00
23321;BME280;33376;51.306;4.752;2023-03-16T07:54:28;101675.97;;;7.93;100.00
23321;BME280;33376;51.306;4.752;2023-03-16T07:56:53;101683.09;;;7.91;100.00
23321;BME280;33376;51.306;4.752;2023-03-16T07:59:19;101676.84;;;7.94;100.00
23321;BME280;33376;51.306;4.752;2023-03-16T08:01:45;101675.06;;;7.94;100.00
23321;BME280;33376;51.306;4.752;2023-03-16T08:04:10;101673.22;;;7.96;100.00
23321;BME280;33376;51.306;4.752;2023-03-16T08:06:36;101670.31;;;8.05;100.00
23321;BME280;33376;51.306;4.752;2023-03-16T08:09:01;101665.63;;;8.15;100.00
23321;BME280;33376;51.306;4.752;2023-03-16T08:11:27;101659.81;;;8.04;100.00
23321;BME280;33376;51.306;4.752;2023-03-16T08:13:52;101634.91;;;8.11;100.00
23321;BME280;33376;51.306;4.752;2023-03-16T08:16:24;101625.19;;;8.40;100.00
23321;BME280;33376;51.306;4.752;2023-03-16T08:18:50;101621.56;;;8.43;100.00
23321;BME280;33376;51.306;4.752;2023-03-16T08:21:16;101612.13;;;8.60;100.00
23321;BME280;33376;51.306;4.752;2023-03-16T08:23:42;101596.81;;;8.70;100.00
23321;BME280;33376;51.306;4.752;2023-03-16T08:26:13;101594.44;;;9.12;100.00
23321;BME280;33376;51.306;4.752;2023-03-16T08:28:38;101578.19;;;8.98;100.00
23321;BME280;33376;51.306;4.752;2023-03-16T08:31:05;101549.00;;;9.24;100.00
23321;BME280;33376;51.306;4.752;2023-03-16T08:33:31;101536.31;;;9.55;100.00
23321;BME280;33376;51.306;4.752;2023-03-16T08:35:56;101523.16;;;9.75;100.00
23321;BME280;33376;51.306;4.752;2023-03-16T08:38:22;101511.91;;;9.90;100.00
23321;BME280;33376;51.306;4.752;2023-03-16T08:40:49;101500.31;;;9.51;100.00
23321;BME280;33376;51.306;4.752;2023-03-16T08:43:15;101501.63;;;9.61;100.00
23321;BME280;33376;51.306;4.752;2023-03-16T08:45:43;101488.34;;;9.62;100.00
23321;BME280;33376;51.306;4.752;2023-03-16T08:48:08;101494.06;;;9.52;100.00
23321;BME280;33376;51.306;4.752;2023-03-16T08:50:37;101488.44;;;9.16;100.00
23321;BME280;33376;51.306;4.752;2023-03-16T08:53:03;101495.22;;;9.00;100.00
23321;BME280;33376;51.306;4.752;2023-03-16T08:55:28;101509.41;;;9.21;100.00
23321;BME280;33376;51.306;4.752;2023-03-16T08:57:53;101502.56;;;9.60;100.00
23321;BME280;33376;51.306;4.752;2023-03-16T09:00:19;101505.50;;;9.74;100.00
23321;BME280;33376;51.306;4.752;2023-03-16T09:02:44;101482.28;;;10.02;100.00
23321;BME280;33376;51.306;4.752;2023-03-16T09:05:11;101480.38;;;10.46;100.00
23321;BME280;33376;51.306;4.752;2023-03-16T09:07:37;101450.25;;;10.48;100.00
23321;BME280;33376;51.306;4.752;2023-03-16T09:10:03;101433.75;;;10.21;100.00
23321;BME280;33376;51.306;4.752;2023-03-16T09:12:30;101438.25;;;10.40;100.00
23321;BME280;33376;51.306;4.752;2023-03-16T09:14:56;101433.09;;;10.55;100.00
23321;BME280;33376;51.306;4.752;2023-03-16T09:17:21;101408.78;;;10.84;100.00
23321;BME280;33376;51.306;4.752;2023-03-16T09:19:47;101390.78;;;10.72;100.00
23321;BME280;33376;51.306;4.752;2023-03-16T09:22:12;101394.41;;;10.88;100.00
23321;BME280;33376;51.306;4.752;2023-03-16T09:24:37;101373.50;;;10.64;100.00
23321;BME280;33376;51.306;4.752;2023-03-16T09:27:03;101377.31;;;10.77;100.00
23321;BME280;33376;51.306;4.752;2023-03-16T09:29:29;101371.09;;;11.13;100.00
23321;BME280;33376;51.306;4.752;2023-03-16T09:31:54;101362.13;;;11.16;100.00
23321;BME280;33376;51.306;4.752;2023-03-16T09:34:19;101337.84;;;11.23;100.00
23321;BME280;33376;51.306;4.752;2023-03-16T09:36:45;101327.34;;;11.39;100.00
23321;BME280;33376;51.306;4.752;2023-03-16T09:39:11;101316.66;;;11.74;100.00
23321;BME280;33376;51.306;4.752;2023-03-16T09:41:47;101288.06;;;11.97;100.00
23321;BME280;33376;51.306;4.752;2023-03-16T09:44:22;101264.88;;;11.66;100.00
23321;BME280;33376;51.306;4.752;2023-03-16T09:46:50;101240.66;;;11.55;100.00
23321;BME280;33376;51.306;4.752;2023-03-16T09:49:20;101249.16;;;11.61;100.00
23321;BME280;33376;51.306;4.752;2023-03-16T09:54:19;101225.97;;;11.65;100.00
23321;BME280;33376;51.306;4.752;2023-03-16T09:56:47;101229.88;;;11.91;100.00
23321;BME280;33376;51.306;4.752;2023-03-16T09:59:14;101231.47;;;12.10;100.00
23321;BME280;33376;51.306;4.752;2023-03-16T10:01:49;101212.78;;;11.96;100.00
23321;BME280;33376;51.306;4.752;2023-03-16T10:09:56;101185.69;;;12.21;100.00
23321;BME280;33376;51.306;4.752;2023-03-16T10:12:22;101167.69;;;12.41;100.00
23321;BME280;33376;51.306;4.752;2023-03-16T10:17:18;101193.94;;;12.32;100.00
23321;BME280;33376;51.306;4.752;2023-03-16T10:19:50;101191.78;;;12.23;100.00
23321;BME280;33376;51.306;4.752;2023-03-16T10:22:20;101154.81;;;12.03;100.00
23321;BME280;33376;51.306;4.752;2023-03-16T10:27:47;101164.75;;;12.15;100.00
23321;BME280;33376;51.306;4.752;2023-03-16T10:30:26;101142.88;;;12.10;100.00
23321;BME280;33376;51.306;4.752;2023-03-16T10:32:52;101115.28;;;11.81;100.00
23321;BME280;33376;51.306;4.752;2023-03-16T10:35:37;101115.31;;;11.97;100.00
23321;BME280;33376;51.306;4.752;2023-03-16T10:38:23;101125.16;;;12.10;100.00
23321;BME280;33376;51.306;4.752;2023-03-16T10:40:51;101140.97;;;12.58;100.00
23321;BME280;33376;51.306;4.752;2023-03-16T10:43:16;101061.63;;;12.51;100.00
23321;BME280;33376;51.306;4.752;2023-03-16T10:45:42;101041.91;;;12.69;100.00
23321;BME280;33376;51.306;4.752;2023-03-16T10:48:17;101005.03;;;12.91;100.00
23321;BME280;33376;51.306;4.752;2023-03-16T10:50:43;100997.72;;;12.94;100.00
23321;BME280;33376;51.306;4.752;2023-03-16T10:53:27;100929.09;;;12.99;100.00
23321;BME280;33376;51.306;4.752;2023-03-16T10:55:57;100904.13;;;13.02;100.00
23321;BME280;33376;51.306;4.752;2023-03-16T10:58:33;100910.44;;;13.27;100.00
23321;BME280;33376;51.306;4.752;2023-03-16T11:00:59;100902.31;;;13.43;100.00
23321;BME280;33376;51.306;4.752;2023-03-16T11:03:29;100850.81;;;13.30;100.00
23321;BME280;33376;51.306;4.752;2023-03-16T11:05:58;100850.19;;;13.66;100.00
23321;BME280;33376;51.306;4.752;2023-03-16T11:08:25;100863.94;;;13.72;100.00
23321;BME280;33376;51.306;4.752;2023-03-16T11:10:55;100826.78;;;13.83;100.00
23321;BME280;33376;51.306;4.752;2023-03-16T11:13:29;100798.28;;;13.84;100.00
23321;BME280;33376;51.306;4.752;2023-03-16T11:18:30;100783.59;;;14.16;100.00
23321;BME280;33376;51.306;4.752;2023-03-16T11:21:01;100791.69;;;14.14;100.00
23321;BME280;33376;51.306;4.752;2023-03-16T11:23:32;100764.22;;;14.62;100.00
23321;BME280;33376;51.306;4.752;2023-03-16T11:25:59;100741.78;;;14.29;100.00
23321;BME280;33376;51.306;4.752;2023-03-16T11:28:36;100784.00;;;14.47;100.00
23321;BME280;33376;51.306;4.752;2023-03-16T11:31:19;100728.38;;;14.05;100.00
23321;BME280;33376;51.306;4.752;2023-03-16T11:33:46;100760.03;;;13.97;100.00
23321;BME280;33376;51.306;4.752;2023-03-16T11:36:47;100732.38;;;14.23;100.00
23321;BME280;33376;51.306;4.752;2023-03-16T11:42:50;100695.06;;;14.59;100.00
23321;BME280;33376;51.306;4.752;2023-03-16T11:44:43;100642.69;;;14.69;100.00
23321;BME280;33376;51.306;4.752;2023-03-16T11:49:57;100678.88;;;14.74;100.00
23321;BME280;33376;51.306;4.752;2023-03-16T11:52:44;100654.06;;;14.37;100.00
23321;BME280;33376;51.306;4.752;2023-03-16T12:13:40;100522.78;;;14.21;100.00
23321;BME280;33376;51.306;4.752;2023-03-16T12:16:23;100531.97;;;14.29;100.00
23321;BME280;33376;51.306;4.752;2023-03-16T12:18:51;100481.69;;;14.36;100.00
23321;BME280;33376;51.306;4.752;2023-03-16T12:21:19;100506.03;;;14.42;100.00
23321;BME280;33376;51.306;4.752;2023-03-16T12:23:52;100506.97;;;14.65;100.00
23321;BME280;33376;51.306;4.752;2023-03-16T12:26:19;100472.66;;;14.72;100.00
23321;BME280;33376;51.306;4.752;2023-03-16T12:28:46;100490.41;;;14.95;100.00
23321;BME280;33376;51.306;4.752;2023-03-16T12:31:14;100407.28;;;14.77;100.00
23321;BME280;33376;51.306;4.752;2023-03-16T12:39:00;100400.09;;;15.22;100.00
23321;BME280;33376;51.306;4.752;2023-03-16T12:41:34;100334.25;;;15.32;100.00
23321;BME280;33376;51.306;4.752;2023-03-16T12:46:50;100334.19;;;15.65;100.00
23321;BME280;33376;51.306;4.752;2023-03-16T12:49:20;100289.00;;;15.41;100.00
23321;BME280;33376;51.306;4.752;2023-03-16T12:51:56;100305.53;;;15.56;100.00
23321;BME280;33376;51.306;4.752;2023-03-16T12:54:23;100300.03;;;15.89;100.00
23321;BME280;33376;51.306;4.752;2023-03-16T12:56:49;100285.69;;;15.69;100.00
23321;BME280;33376;51.306;4.752;2023-03-16T12:59:16;100267.09;;;15.88;100.00
23321;BME280;33376;51.306;4.752;2023-03-16T13:01:43;100241.41;;;16.27;100.00
23321;BME280;33376;51.306;4.752;2023-03-16T13:06:40;100191.97;;;16.22;100.00
23321;BME280;33376;51.306;4.752;2023-03-16T13:09:07;100171.28;;;16.92;100.00
23321;BME280;33376;51.306;4.752;2023-03-16T13:11:42;100166.81;;;17.02;100.00
23321;BME280;33376;51.306;4.752;2023-03-16T13:14:12;100203.31;;;17.03;100.00
23321;BME280;33376;51.306;4.752;2023-03-16T13:16:39;100281.47;;;16.68;100.00
23321;BME280;33376;51.306;4.752;2023-03-16T13:19:24;100210.44;;;16.74;100.00
23321;BME280;33376;51.306;4.752;2023-03-16T13:21:59;100093.22;;;16.87;100.00
23321;BME280;33376;51.306;4.752;2023-03-16T13:24:26;100153.25;;;16.65;100.00
23321;BME280;33376;51.306;4.752;2023-03-16T13:26:53;100164.84;;;16.85;100.00
23321;BME280;33376;51.306;4.752;2023-03-16T13:29:31;100059.28;;;16.68;100.00
23321;BME280;33376;51.306;4.752;2023-03-16T13:31:57;100066.16;;;16.90;100.00
23321;BME280;33376;51.306;4.752;2023-03-16T13:34:28;100055.13;;;17.21;100.00
23321;BME280;33376;51.306;4.752;2023-03-16T13:36:54;100115.56;;;17.52;100.00
23321;BME280;33376;51.306;4.752;2023-03-16T13:39:24;100148.88;;;16.74;100.00
23321;BME280;33376;51.306;4.752;2023-03-16T13:41:53;100215.16;;;16.91;100.00
23321;BME280;33376;51.306;4.752;2023-03-16T13:44:18;100276.69;;;16.42;100.00